Terminal Aerodrome Forecast
Issued by NWS

Home | Current Version | Previous Version | Text Only | Print | Product List | Glossary On
Versions: 1 2 3 4 5 6 7 8 9 10 11 12 13 14 15 16
000
FTUS43 KDDC 231137
TAFHYS
TAF
KHYS 231137Z 2312/2412 17010KT P6SM FEW250
     FM231600 17020G28KT P6SM BKN090
     FM240400 16015KT P6SM BKN130=

USA.gov is the U.S. government's official web portal to all federal, state and local government web resources and services.